AirNav   Air Wisconsin Up To $57,000 Bonus
 
 618 users online  

PS34 North Penn USARC Heliport
Worcester, Pennsylvania, USA

GOING TO WORCESTER?


FAA INFORMATION EFFECTIVE 08 SEPTEMBER 2022

Location

FAA Identifier: PS34
Lat/Long: 40-11-30.3820N 075-20-28.6420W
40-11.506367N 075-20.477367W
40.1917728,-75.3412894
(estimated)
Elevation: 450 ft. / 137 m (estimated)
Variation: 11W (1985)
From city: 5 miles SW of WORCESTER, PA
Time zone: UTC -4 (UTC -5 during Standard Time)
Zip code: 19403

Heliport Operations

Heliport use: Private use. Permission required prior to landing
Activation date: 12/1983
Control tower: no
ARTCC: NEW YORK CENTER
FSS: WILLIAMSPORT FLIGHT SERVICE STATION
Attendance: MON-FRI 0800-1630, ALL SAT-SUN IREG
Segmented circle: no

Heliport Communications

WX AWOS-3 at LOM (5 nm SE): 118.925 (215-646-1068)
WX ASOS at PTW (10 nm W): 119.425 (610-495-0823)
WX AWOS-3 at CKZ (12 nm N): 126.325 (215-257-7291)
WX ASOS at DYL (13 nm NE): 118.875 (215-345-0392)
WX AWOS-3 at UKT (15 nm N): 119.475 (215-538-7610)
WX AWOS-3T at OQN (16 nm SW): 121.4 ((610) 692-6190)
WX ASOS at PNE (17 nm SE): PHONE 215-677-0146
WX ASOS at PHL (20 nm S): PHONE 215-492-9617

Nearby radio navigation aids

VOR radial/distance  VOR name  Freq  Var
PTWr109/10.2POTTSTOWN VORTAC116.5009W
ARDr269/20.2YARDLEY VOR/DME108.2010W
MXEr052/22.3MODENA VORTAC113.2009W
ETXr155/28.1EAST TEXAS VOR/DME110.2009W
FJCr181/32.5ALLENTOWN VORTAC117.5010W
DQOr032/33.2DUPONT VORTAC114.0010W
OODr007/33.4WOODSTOWN VORTAC112.8010W
GXUr300/35.9MC GUIRE VORTAC110.6012W
SBJr239/36.1SOLBERG VOR/DME112.9010W
RBVr279/38.8ROBBINSVILLE VORTAC113.8010W

Heliport Services

Runway Information

Helipad H1

Dimensions: 100 x 100 ft. / 30 x 30 m
Surface: asphalt, in fair condition
Latitude: 40-11.506367N
Longitude: 075-20.477367W
Elevation: 450.0 ft.
Traffic pattern: leftleft
Markings: none, in fair condition
Obstructions: pline
PLINE 600' EAST.

Heliport Ownership and Management from official FAA records

Ownership: U.S. Army
Owner: 330TH ENGR BR (C)(C)
NORTH PENN MEMORIAL USARC
WORCESTER, PA 19490
Phone 215-584-1111
AUTOVAN 991-1661.
Manager: LTCJAMES J. CARROLL, CTR CMDR
POTSHOP & BERKS ROAD
WORCESTER, PA 19490-9998
Phone 215-584-1836

Additional Remarks

UNIT (330TH ENGR BR) MUST BE NOTIFIED PRIOR TO LANDING.
FOR CD CTC PHILADELPHIA APCH AT 800-354-9884.

Instrument Procedures

There are no published instrument procedures at PS34.

Some nearby airports with instrument procedures:

KLOM - Wings Field Airport (5 nm SE)
KPTW - Heritage Field Airport (10 nm W)
KCKZ - Pennridge Airport (12 nm N)
KDYL - Doylestown Airport (13 nm NE)
KUKT - Quakertown Airport (15 nm N)
N47 - Pottstown Municipal Airport (16 nm W)
KOQN - Brandywine Regional Airport (16 nm SW)
KPNE - Northeast Philadelphia Airport (17 nm SE)
KPHL - Philadelphia International Airport (20 nm S)
 
Loc | Ops | Rwys | IFR | FBO | Links
Com | Nav | Svcs | Stats | Notes
Area around PS34 (North Penn USARC Heliport)
 
Road maps at: MapQuest Bing Google
 
Aerial photo
No photo
 
Sectional chart

 
Airport distance calculator
Flying to North Penn USARC Heliport? Find the distance to fly.

From to PS34

Sunrise and sunset
Times for 25-Sep-2022
 Local
(UTC-4)
 Zulu
(UTC)
Morning civil twilight06:2610:26
Sunrise06:5310:53
Sunset18:5322:53
Evening civil twilight19:2023:20

Current date and time
Zulu (UTC)  25-Sep-2022 11:21:40
Local (UTC-4)  25-Sep-2022 07:21:40
 
METAR
KLOM 
5nm SE 
251055Z AUTO 00000KT 10SM BKN070 13/12 A2982 RMK AO2 T01310121
KPTW 
10nm W 
251054Z AUTO 00000KT 10SM BKN080 BKN120 12/11 A2983 RMK AO2 SLP098 T01220106
KCKZ 
12nm N 
251055Z AUTO 00000KT 10SM SCT065 BKN090 BKN120 12/12 A2982 RMK AO2
KDYL 
13nm NE 
251054Z AUTO 00000KT 10SM OVC070 14/10 A2981 RMK AO2 SLP093 T01440100
KUKT 
15nm N 
251055Z AUTO 00000KT 10SM FEW090 BKN120 12/12 A2982 RMK A01
KPNE 
16nm SE 
251054Z 00000KT 10SM OVC075 15/11 A2984 RMK AO2 SLP102 T01500111
KOQN 
16nm SW 
250935Z AUTO 00000KT 10SM OVC070 15/11 A2984 RMK AO2
TAF
KPNE 
16nm SE 
250531Z 2506/2606 21004KT P6SM BKN080 FM251200 20006KT P6SM FEW050 BKN120 FM251500 21010KT P6SM SCT060 BKN150 FM251900 22012G18KT P6SM VCTS BKN060CB FM252300 22009KT P6SM VCSH BKN100 FM260400 24007KT P6SM SCT120
NOTAMs
Click for the latest NOTAMs
NOTAMs are issued by the DoD/FAA and will open in a separate window not controlled by AirNav.

 

 
 

Would you like to see your business listed on this page?

 If your business provides an interesting product or service to pilots, flight crews, aircraft, or users of the North Penn USARC Heliport, you should consider listing it here.  To start the listing process, click on the button below
 
Add a business
 

Other Pages about North Penn USARC Heliport

Update a link
 
Copyright © AirNav, LLC. All rights reserved. Privacy Policy  Contact